sensor_id;sensor_type;location;lat;lon;timestamp;temperature;humidity
68011;DHT22;54794;48.348;7.878;2023-04-06T00:00:59;6.40;43.50
68011;DHT22;54794;48.348;7.878;2023-04-06T00:03:26;6.30;43.60
68011;DHT22;54794;48.348;7.878;2023-04-06T00:05:53;6.30;43.70
68011;DHT22;54794;48.348;7.878;2023-04-06T00:08:20;6.30;43.80
68011;DHT22;54794;48.348;7.878;2023-04-06T00:10:50;6.30;44.00
68011;DHT22;54794;48.348;7.878;2023-04-06T00:13:17;6.30;43.80
68011;DHT22;54794;48.348;7.878;2023-04-06T00:15:44;6.30;44.00
68011;DHT22;54794;48.348;7.878;2023-04-06T00:18:11;6.20;44.50
68011;DHT22;54794;48.348;7.878;2023-04-06T00:20:38;6.20;44.90
68011;DHT22;54794;48.348;7.878;2023-04-06T00:23:06;6.20;44.70
68011;DHT22;54794;48.348;7.878;2023-04-06T00:25:32;6.20;44.90
68011;DHT22;54794;48.348;7.878;2023-04-06T00:27:59;6.20;45.40
68011;DHT22;54794;48.348;7.878;2023-04-06T00:30:26;6.30;44.90
68011;DHT22;54794;48.348;7.878;2023-04-06T00:32:53;6.30;44.80
68011;DHT22;54794;48.348;7.878;2023-04-06T00:35:21;6.20;44.80
68011;DHT22;54794;48.348;7.878;2023-04-06T00:37:47;6.20;44.80
68011;DHT22;54794;48.348;7.878;2023-04-06T00:40:15;6.30;44.90
68011;DHT22;54794;48.348;7.878;2023-04-06T00:42:42;6.30;44.70
68011;DHT22;54794;48.348;7.878;2023-04-06T00:45:09;6.30;44.80
68011;DHT22;54794;48.348;7.878;2023-04-06T00:47:37;6.30;44.90
68011;DHT22;54794;48.348;7.878;2023-04-06T00:50:04;6.30;44.60
68011;DHT22;54794;48.348;7.878;2023-04-06T00:52:33;6.30;44.50
68011;DHT22;54794;48.348;7.878;2023-04-06T00:55:02;6.30;44.50
68011;DHT22;54794;48.348;7.878;2023-04-06T00:57:30;6.30;44.40
68011;DHT22;54794;48.348;7.878;2023-04-06T00:59:57;6.30;44.50
68011;DHT22;54794;48.348;7.878;2023-04-06T01:02:24;6.30;44.50
68011;DHT22;54794;48.348;7.878;2023-04-06T01:04:53;6.30;44.80
68011;DHT22;54794;48.348;7.878;2023-04-06T01:07:21;6.30;45.20
68011;DHT22;54794;48.348;7.878;2023-04-06T01:09:48;6.30;45.30
68011;DHT22;54794;48.348;7.878;2023-04-06T01:12:15;6.30;45.40
68011;DHT22;54794;48.348;7.878;2023-04-06T01:14:42;6.20;44.70
68011;DHT22;54794;48.348;7.878;2023-04-06T01:17:09;6.20;44.70
68011;DHT22;54794;48.348;7.878;2023-04-06T01:19:36;6.20;44.80
68011;DHT22;54794;48.348;7.878;2023-04-06T01:22:03;6.20;44.70
68011;DHT22;54794;48.348;7.878;2023-04-06T01:24:30;6.30;44.90
68011;DHT22;54794;48.348;7.878;2023-04-06T01:26:57;6.30;44.40
68011;DHT22;54794;48.348;7.878;2023-04-06T01:29:24;6.20;44.50
68011;DHT22;54794;48.348;7.878;2023-04-06T01:31:51;6.20;44.50
68011;DHT22;54794;48.348;7.878;2023-04-06T01:34:18;6.20;44.50
68011;DHT22;54794;48.348;7.878;2023-04-06T01:36:45;6.10;44.60
68011;DHT22;54794;48.348;7.878;2023-04-06T01:39:12;6.10;44.60
68011;DHT22;54794;48.348;7.878;2023-04-06T01:41:39;6.00;44.50
68011;DHT22;54794;48.348;7.878;2023-04-06T01:44:06;6.00;44.50
68011;DHT22;54794;48.348;7.878;2023-04-06T01:46:33;6.00;44.70
68011;DHT22;54794;48.348;7.878;2023-04-06T01:49:00;5.90;44.60
68011;DHT22;54794;48.348;7.878;2023-04-06T01:51:27;5.90;44.80
68011;DHT22;54794;48.348;7.878;2023-04-06T01:53:54;5.90;44.70
68011;DHT22;54794;48.348;7.878;2023-04-06T01:56:21;5.90;44.80
68011;DHT22;54794;48.348;7.878;2023-04-06T01:58:48;5.90;44.80
68011;DHT22;54794;48.348;7.878;2023-04-06T02:01:16;5.90;44.80
68011;DHT22;54794;48.348;7.878;2023-04-06T02:03:42;5.80;44.80
68011;DHT22;54794;48.348;7.878;2023-04-06T02:06:09;5.80;44.80
68011;DHT22;54794;48.348;7.878;2023-04-06T02:08:36;5.80;44.90
68011;DHT22;54794;48.348;7.878;2023-04-06T02:11:03;5.80;44.90
68011;DHT22;54794;48.348;7.878;2023-04-06T02:13:30;5.70;44.90
68011;DHT22;54794;48.348;7.878;2023-04-06T02:15:58;5.70;44.90
68011;DHT22;54794;48.348;7.878;2023-04-06T02:18:25;5.70;45.00
68011;DHT22;54794;48.348;7.878;2023-04-06T02:20:52;5.70;45.00
68011;DHT22;54794;48.348;7.878;2023-04-06T02:23:19;5.60;45.20
68011;DHT22;54794;48.348;7.878;2023-04-06T02:25:46;5.60;45.00
68011;DHT22;54794;48.348;7.878;2023-04-06T02:28:13;5.60;45.20
68011;DHT22;54794;48.348;7.878;2023-04-06T02:30:40;5.60;45.20
68011;DHT22;54794;48.348;7.878;2023-04-06T02:33:07;5.60;45.70
68011;DHT22;54794;48.348;7.878;2023-04-06T02:35:34;5.60;45.20
68011;DHT22;54794;48.348;7.878;2023-04-06T02:38:01;5.50;45.20
68011;DHT22;54794;48.348;7.878;2023-04-06T02:40:27;5.50;45.30
68011;DHT22;54794;48.348;7.878;2023-04-06T02:42:54;5.50;45.20
68011;DHT22;54794;48.348;7.878;2023-04-06T02:45:21;5.50;45.40
68011;DHT22;54794;48.348;7.878;2023-04-06T02:47:48;5.50;45.40
68011;DHT22;54794;48.348;7.878;2023-04-06T02:50:15;5.50;45.40
68011;DHT22;54794;48.348;7.878;2023-04-06T02:52:42;5.50;45.40
68011;DHT22;54794;48.348;7.878;2023-04-06T02:55:09;5.50;45.50
68011;DHT22;54794;48.348;7.878;2023-04-06T02:57:36;5.50;45.40
68011;DHT22;54794;48.348;7.878;2023-04-06T03:00:04;5.60;45.60
68011;DHT22;54794;48.348;7.878;2023-04-06T03:02:31;5.60;46.50
68011;DHT22;54794;48.348;7.878;2023-04-06T03:04:58;5.60;46.10
68011;DHT22;54794;48.348;7.878;2023-04-06T03:07:26;5.60;45.90
68011;DHT22;54794;48.348;7.878;2023-04-06T03:09:52;5.60;45.90
68011;DHT22;54794;48.348;7.878;2023-04-06T03:12:19;5.60;45.80
68011;DHT22;54794;48.348;7.878;2023-04-06T03:14:47;5.60;45.80
68011;DHT22;54794;48.348;7.878;2023-04-06T03:17:13;5.60;45.70
68011;DHT22;54794;48.348;7.878;2023-04-06T03:19:41;5.60;45.80
68011;DHT22;54794;48.348;7.878;2023-04-06T03:22:08;5.60;45.90
68011;DHT22;54794;48.348;7.878;2023-04-06T03:24:35;5.60;46.40
68011;DHT22;54794;48.348;7.878;2023-04-06T03:27:01;5.60;45.70
68011;DHT22;54794;48.348;7.878;2023-04-06T03:29:28;5.50;45.90
68011;DHT22;54794;48.348;7.878;2023-04-06T03:31:56;5.60;45.80
68011;DHT22;54794;48.348;7.878;2023-04-06T03:34:23;5.50;47.50
68011;DHT22;54794;48.348;7.878;2023-04-06T03:36:50;5.50;45.90
68011;DHT22;54794;48.348;7.878;2023-04-06T03:39:34;5.50;45.70
68011;DHT22;54794;48.348;7.878;2023-04-06T03:42:01;5.50;46.10
68011;DHT22;54794;48.348;7.878;2023-04-06T03:44:28;5.50;45.80
68011;DHT22;54794;48.348;7.878;2023-04-06T03:46:55;5.40;45.80
68011;DHT22;54794;48.348;7.878;2023-04-06T03:49:22;5.50;45.90
68011;DHT22;54794;48.348;7.878;2023-04-06T03:51:49;5.40;45.80
68011;DHT22;54794;48.348;7.878;2023-04-06T03:54:16;5.40;45.80
68011;DHT22;54794;48.348;7.878;2023-04-06T03:56:43;5.40;45.80
68011;DHT22;54794;48.348;7.878;2023-04-06T03:59:10;5.40;45.80
68011;DHT22;54794;48.348;7.878;2023-04-06T04:01:37;5.40;45.70
68011;DHT22;54794;48.348;7.878;2023-04-06T04:04:05;5.30;45.80
68011;DHT22;54794;48.348;7.878;2023-04-06T04:06:32;5.30;45.70
68011;DHT22;54794;48.348;7.878;2023-04-06T04:08:59;5.30;45.60
68011;DHT22;54794;48.348;7.878;2023-04-06T04:11:26;5.30;45.50
68011;DHT22;54794;48.348;7.878;2023-04-06T04:13:53;5.30;45.70
68011;DHT22;54794;48.348;7.878;2023-04-06T04:16:20;5.20;45.90
68011;DHT22;54794;48.348;7.878;2023-04-06T04:18:47;5.10;45.80
68011;DHT22;54794;48.348;7.878;2023-04-06T04:21:15;5.10;45.90
68011;DHT22;54794;48.348;7.878;2023-04-06T04:23:42;5.10;46.00
68011;DHT22;54794;48.348;7.878;2023-04-06T04:26:09;5.10;46.10
68011;DHT22;54794;48.348;7.878;2023-04-06T04:28:36;5.00;46.00
68011;DHT22;54794;48.348;7.878;2023-04-06T04:31:03;5.30;46.30
68011;DHT22;54794;48.348;7.878;2023-04-06T04:33:30;5.00;46.10
68011;DHT22;54794;48.348;7.878;2023-04-06T04:35:57;5.00;46.20
68011;DHT22;54794;48.348;7.878;2023-04-06T04:38:24;5.00;46.20
68011;DHT22;54794;48.348;7.878;2023-04-06T04:40:51;5.10;46.20
68011;DHT22;54794;48.348;7.878;2023-04-06T04:43:18;5.00;46.10
68011;DHT22;54794;48.348;7.878;2023-04-06T04:45:45;5.00;46.20
68011;DHT22;54794;48.348;7.878;2023-04-06T04:48:12;5.00;46.20
68011;DHT22;54794;48.348;7.878;2023-04-06T04:50:39;5.00;46.10
68011;DHT22;54794;48.348;7.878;2023-04-06T04:53:06;5.00;46.20
68011;DHT22;54794;48.348;7.878;2023-04-06T04:55:33;5.00;46.20
68011;DHT22;54794;48.348;7.878;2023-04-06T04:58:00;5.00;46.30
68011;DHT22;54794;48.348;7.878;2023-04-06T05:00:27;5.00;46.40
68011;DHT22;54794;48.348;7.878;2023-04-06T05:02:54;4.90;46.40
68011;DHT22;54794;48.348;7.878;2023-04-06T05:05:21;4.90;46.40
68011;DHT22;54794;48.348;7.878;2023-04-06T05:07:48;5.00;46.40
68011;DHT22;54794;48.348;7.878;2023-04-06T05:10:15;4.90;46.40
68011;DHT22;54794;48.348;7.878;2023-04-06T05:12:41;4.90;46.40
68011;DHT22;54794;48.348;7.878;2023-04-06T05:15:09;4.90;46.70
68011;DHT22;54794;48.348;7.878;2023-04-06T05:17:37;4.90;46.40
68011;DHT22;54794;48.348;7.878;2023-04-06T05:20:05;4.80;46.40
68011;DHT22;54794;48.348;7.878;2023-04-06T05:22:32;4.80;47.00
68011;DHT22;54794;48.348;7.878;2023-04-06T05:24:59;4.80;46.50
68011;DHT22;54794;48.348;7.878;2023-04-06T05:27:26;4.80;46.70
68011;DHT22;54794;48.348;7.878;2023-04-06T05:29:54;4.80;46.70
68011;DHT22;54794;48.348;7.878;2023-04-06T05:32:23;4.80;46.70
68011;DHT22;54794;48.348;7.878;2023-04-06T05:34:51;4.80;46.80
68011;DHT22;54794;48.348;7.878;2023-04-06T05:37:18;4.80;46.90
68011;DHT22;54794;48.348;7.878;2023-04-06T05:39:45;4.80;47.10
68011;DHT22;54794;48.348;7.878;2023-04-06T05:42:12;4.90;47.20
68011;DHT22;54794;48.348;7.878;2023-04-06T05:44:39;4.90;47.10
68011;DHT22;54794;48.348;7.878;2023-04-06T05:47:07;4.90;46.90
68011;DHT22;54794;48.348;7.878;2023-04-06T05:49:35;5.00;46.90
68011;DHT22;54794;48.348;7.878;2023-04-06T05:52:03;5.00;46.90
68011;DHT22;54794;48.348;7.878;2023-04-06T05:54:31;5.00;46.90
68011;DHT22;54794;48.348;7.878;2023-04-06T05:56:58;5.00;47.00
68011;DHT22;54794;48.348;7.878;2023-04-06T05:59:26;5.00;47.80
68011;DHT22;54794;48.348;7.878;2023-04-06T06:01:54;5.10;47.30
68011;DHT22;54794;48.348;7.878;2023-04-06T06:04:21;5.10;47.30
68011;DHT22;54794;48.348;7.878;2023-04-06T06:06:49;5.10;47.70
68011;DHT22;54794;48.348;7.878;2023-04-06T06:09:22;5.10;47.50
68011;DHT22;54794;48.348;7.878;2023-04-06T06:12:10;5.10;47.50
68011;DHT22;54794;48.348;7.878;2023-04-06T06:14:43;5.10;47.20
68011;DHT22;54794;48.348;7.878;2023-04-06T06:17:24;5.20;47.40
68011;DHT22;54794;48.348;7.878;2023-04-06T06:19:54;5.30;47.40
68011;DHT22;54794;48.348;7.878;2023-04-06T06:22:31;5.30;47.30
68011;DHT22;54794;48.348;7.878;2023-04-06T06:25:05;5.30;47.30
68011;DHT22;54794;48.348;7.878;2023-04-06T06:27:43;5.40;47.40
68011;DHT22;54794;48.348;7.878;2023-04-06T06:30:21;5.40;47.50
68011;DHT22;54794;48.348;7.878;2023-04-06T06:32:55;5.50;47.60
68011;DHT22;54794;48.348;7.878;2023-04-06T06:35:43;5.50;47.50
68011;DHT22;54794;48.348;7.878;2023-04-06T06:38:59;5.60;47.50
68011;DHT22;54794;48.348;7.878;2023-04-06T06:41:48;5.60;47.50
68011;DHT22;54794;48.348;7.878;2023-04-06T06:44:33;5.70;47.60
68011;DHT22;54794;48.348;7.878;2023-04-06T06:47:12;5.70;47.40
68011;DHT22;54794;48.348;7.878;2023-04-06T06:49:51;5.80;47.50
68011;DHT22;54794;48.348;7.878;2023-04-06T06:53:03;5.90;47.50
68011;DHT22;54794;48.348;7.878;2023-04-06T06:55:53;5.90;47.40
68011;DHT22;54794;48.348;7.878;2023-04-06T06:58:25;6.00;47.50
68011;DHT22;54794;48.348;7.878;2023-04-06T07:01:24;6.10;47.60
68011;DHT22;54794;48.348;7.878;2023-04-06T07:04:07;6.20;47.70
68011;DHT22;54794;48.348;7.878;2023-04-06T07:07:06;6.20;47.70
68011;DHT22;54794;48.348;7.878;2023-04-06T07:09:50;6.40;48.10
68011;DHT22;54794;48.348;7.878;2023-04-06T07:12:27;6.50;47.60
68011;DHT22;54794;48.348;7.878;2023-04-06T07:15:12;6.60;47.70
68011;DHT22;54794;48.348;7.878;2023-04-06T07:17:48;6.70;47.70
68011;DHT22;54794;48.348;7.878;2023-04-06T07:20:21;6.80;47.70
68011;DHT22;54794;48.348;7.878;2023-04-06T07:22:51;6.90;47.70
68011;DHT22;54794;48.348;7.878;2023-04-06T07:25:32;7.00;47.70
68011;DHT22;54794;48.348;7.878;2023-04-06T07:28:08;7.20;47.70
68011;DHT22;54794;48.348;7.878;2023-04-06T07:30:43;7.30;47.70
68011;DHT22;54794;48.348;7.878;2023-04-06T07:33:15;7.40;47.70
68011;DHT22;54794;48.348;7.878;2023-04-06T07:35:42;7.50;47.60
68011;DHT22;54794;48.348;7.878;2023-04-06T07:38:24;7.60;47.60
68011;DHT22;54794;48.348;7.878;2023-04-06T07:41:03;7.80;47.70
68011;DHT22;54794;48.348;7.878;2023-04-06T07:43:40;7.90;47.70
68011;DHT22;54794;48.348;7.878;2023-04-06T07:46:16;8.00;47.50
68011;DHT22;54794;48.348;7.878;2023-04-06T07:48:57;8.20;47.60
68011;DHT22;54794;48.348;7.878;2023-04-06T07:51:38;8.40;47.60
68011;DHT22;54794;48.348;7.878;2023-04-06T07:54:06;8.50;47.50
68011;DHT22;54794;48.348;7.878;2023-04-06T07:56:33;8.60;47.50
68011;DHT22;54794;48.348;7.878;2023-04-06T07:59:01;8.70;47.50
68011;DHT22;54794;48.348;7.878;2023-04-06T08:01:33;8.90;47.40
68011;DHT22;54794;48.348;7.878;2023-04-06T08:04:00;9.00;47.50
68011;DHT22;54794;48.348;7.878;2023-04-06T08:06:33;9.20;47.40
68011;DHT22;54794;48.348;7.878;2023-04-06T08:09:00;9.30;47.20
68011;DHT22;54794;48.348;7.878;2023-04-06T08:11:27;9.40;47.40
68011;DHT22;54794;48.348;7.878;2023-04-06T08:13:57;9.60;47.00
68011;DHT22;54794;48.348;7.878;2023-04-06T08:16:32;9.70;46.90
68011;DHT22;54794;48.348;7.878;2023-04-06T08:18:59;9.90;46.80
68011;DHT22;54794;48.348;7.878;2023-04-06T08:21:26;10.00;46.70
68011;DHT22;54794;48.348;7.878;2023-04-06T08:23:56;10.10;46.70
68011;DHT22;54794;48.348;7.878;2023-04-06T08:26:26;10.30;46.80
68011;DHT22;54794;48.348;7.878;2023-04-06T08:29:17;10.50;46.70
68011;DHT22;54794;48.348;7.878;2023-04-06T08:31:49;10.60;46.70
68011;DHT22;54794;48.348;7.878;2023-04-06T08:34:16;10.80;46.60
68011;DHT22;54794;48.348;7.878;2023-04-06T08:36:43;10.90;46.40
68011;DHT22;54794;48.348;7.878;2023-04-06T08:39:12;11.00;46.20
68011;DHT22;54794;48.348;7.878;2023-04-06T08:41:41;11.10;45.90
68011;DHT22;54794;48.348;7.878;2023-04-06T08:44:09;11.20;45.80
68011;DHT22;54794;48.348;7.878;2023-04-06T08:46:38;11.30;45.70
68011;DHT22;54794;48.348;7.878;2023-04-06T08:49:05;11.40;45.70
68011;DHT22;54794;48.348;7.878;2023-04-06T08:51:36;11.40;45.70
68011;DHT22;54794;48.348;7.878;2023-04-06T08:54:04;11.50;45.70
68011;DHT22;54794;48.348;7.878;2023-04-06T08:56:32;11.60;45.60
68011;DHT22;54794;48.348;7.878;2023-04-06T08:58:59;11.60;45.40
68011;DHT22;54794;48.348;7.878;2023-04-06T09:01:28;11.70;45.40
68011;DHT22;54794;48.348;7.878;2023-04-06T09:03:58;11.80;45.50
68011;DHT22;54794;48.348;7.878;2023-04-06T09:06:27;11.90;45.60
68011;DHT22;54794;48.348;7.878;2023-04-06T09:08:54;12.00;45.60
68011;DHT22;54794;48.348;7.878;2023-04-06T09:11:21;12.10;45.30
68011;DHT22;54794;48.348;7.878;2023-04-06T09:13:53;12.10;45.40
68011;DHT22;54794;48.348;7.878;2023-04-06T09:16:38;12.30;45.40
68011;DHT22;54794;48.348;7.878;2023-04-06T09:19:15;12.30;45.10
68011;DHT22;54794;48.348;7.878;2023-04-06T09:21:42;12.50;45.10
68011;DHT22;54794;48.348;7.878;2023-04-06T09:24:20;12.60;45.30
68011;DHT22;54794;48.348;7.878;2023-04-06T09:27:07;12.70;45.10
68011;DHT22;54794;48.348;7.878;2023-04-06T09:29:45;12.80;45.00
68011;DHT22;54794;48.348;7.878;2023-04-06T09:32:21;12.90;45.10
68011;DHT22;54794;48.348;7.878;2023-04-06T09:34:48;13.10;45.20
68011;DHT22;54794;48.348;7.878;2023-04-06T09:37:17;13.20;45.00
68011;DHT22;54794;48.348;7.878;2023-04-06T09:39:45;13.30;45.00
68011;DHT22;54794;48.348;7.878;2023-04-06T09:42:25;13.40;45.00
68011;DHT22;54794;48.348;7.878;2023-04-06T09:44:52;13.60;44.80
68011;DHT22;54794;48.348;7.878;2023-04-06T09:47:19;13.80;44.80
68011;DHT22;54794;48.348;7.878;2023-04-06T09:49:59;13.90;44.40
68011;DHT22;54794;48.348;7.878;2023-04-06T09:52:37;14.10;43.70
68011;DHT22;54794;48.348;7.878;2023-04-06T09:55:09;14.20;43.60
68011;DHT22;54794;48.348;7.878;2023-04-06T09:57:53;14.30;43.90
68011;DHT22;54794;48.348;7.878;2023-04-06T10:00:25;14.50;43.10
68011;DHT22;54794;48.348;7.878;2023-04-06T10:05:54;14.70;43.20
68011;DHT22;54794;48.348;7.878;2023-04-06T10:08:27;14.70;42.70
68011;DHT22;54794;48.348;7.878;2023-04-06T10:10:59;14.80;42.70
68011;DHT22;54794;48.348;7.878;2023-04-06T10:13:27;14.90;42.60
68011;DHT22;54794;48.348;7.878;2023-04-06T10:15:54;14.90;42.50
68011;DHT22;54794;48.348;7.878;2023-04-06T10:18:21;15.00;42.50
68011;DHT22;54794;48.348;7.878;2023-04-06T10:24:00;15.00;41.80
68011;DHT22;54794;48.348;7.878;2023-04-06T10:26:28;15.10;41.50
68011;DHT22;54794;48.348;7.878;2023-04-06T10:29:04;15.10;41.80
68011;DHT22;54794;48.348;7.878;2023-04-06T10:31:32;15.10;41.00
68011;DHT22;54794;48.348;7.878;2023-04-06T10:34:01;15.10;41.60
68011;DHT22;54794;48.348;7.878;2023-04-06T10:36:42;15.10;41.40
68011;DHT22;54794;48.348;7.878;2023-04-06T10:39:30;15.10;41.50
68011;DHT22;54794;48.348;7.878;2023-04-06T10:42:11;15.10;41.30
68011;DHT22;54794;48.348;7.878;2023-04-06T10:44:43;15.20;40.90
68011;DHT22;54794;48.348;7.878;2023-04-06T10:47:16;15.20;40.60
68011;DHT22;54794;48.348;7.878;2023-04-06T10:49:44;15.20;40.90
68011;DHT22;54794;48.348;7.878;2023-04-06T10:53:01;15.30;41.30
68011;DHT22;54794;48.348;7.878;2023-04-06T11:03:57;15.60;40.60
68011;DHT22;54794;48.348;7.878;2023-04-06T11:06:29;15.80;41.00
68011;DHT22;54794;48.348;7.878;2023-04-06T11:08:58;15.80;40.90
68011;DHT22;54794;48.348;7.878;2023-04-06T11:11:26;15.90;40.90
68011;DHT22;54794;48.348;7.878;2023-04-06T11:13:56;16.00;41.00
68011;DHT22;54794;48.348;7.878;2023-04-06T11:22:14;16.20;40.50
68011;DHT22;54794;48.348;7.878;2023-04-06T11:25:26;16.30;40.80
68011;DHT22;54794;48.348;7.878;2023-04-06T11:28:31;16.40;41.00
68011;DHT22;54794;48.348;7.878;2023-04-06T11:31:17;16.50;40.20
68011;DHT22;54794;48.348;7.878;2023-04-06T11:34:33;16.60;39.50
68011;DHT22;54794;48.348;7.878;2023-04-06T11:40:12;16.70;40.40
68011;DHT22;54794;48.348;7.878;2023-04-06T11:43:11;16.80;40.30
68011;DHT22;54794;48.348;7.878;2023-04-06T11:46:29;16.90;40.20
68011;DHT22;54794;48.348;7.878;2023-04-06T11:50:04;17.00;39.60
68011;DHT22;54794;48.348;7.878;2023-04-06T11:53:01;17.00;39.30
68011;DHT22;54794;48.348;7.878;2023-04-06T11:56:37;17.10;39.70
68011;DHT22;54794;48.348;7.878;2023-04-06T11:59:16;17.20;40.00
68011;DHT22;54794;48.348;7.878;2023-04-06T12:01:47;17.30;39.20
68011;DHT22;54794;48.348;7.878;2023-04-06T12:04:14;17.30;39.30
68011;DHT22;54794;48.348;7.878;2023-04-06T12:06:41;17.30;39.50
68011;DHT22;54794;48.348;7.878;2023-04-06T12:09:08;17.40;39.30
68011;DHT22;54794;48.348;7.878;2023-04-06T12:11:35;17.40;39.60
68011;DHT22;54794;48.348;7.878;2023-04-06T12:14:16;17.50;39.50
68011;DHT22;54794;48.348;7.878;2023-04-06T12:16:48;17.50;39.10
68011;DHT22;54794;48.348;7.878;2023-04-06T12:19:22;17.60;39.20
68011;DHT22;54794;48.348;7.878;2023-04-06T12:21:52;17.70;39.20
68011;DHT22;54794;48.348;7.878;2023-04-06T12:24:27;17.70;38.90
68011;DHT22;54794;48.348;7.878;2023-04-06T12:27:06;17.80;38.90
68011;DHT22;54794;48.348;7.878;2023-04-06T12:29:37;17.80;39.00
68011;DHT22;54794;48.348;7.878;2023-04-06T12:32:15;17.90;39.00
68011;DHT22;54794;48.348;7.878;2023-04-06T12:34:52;17.90;38.60
68011;DHT22;54794;48.348;7.878;2023-04-06T12:37:36;18.00;38.30
68011;DHT22;54794;48.348;7.878;2023-04-06T12:40:14;18.00;38.40
68011;DHT22;54794;48.348;7.878;2023-04-06T12:42:56;18.10;38.10
68011;DHT22;54794;48.348;7.878;2023-04-06T12:45:33;18.10;38.00
68011;DHT22;54794;48.348;7.878;2023-04-06T12:48:10;18.00;38.10
68011;DHT22;54794;48.348;7.878;2023-04-06T12:50:59;18.10;37.70
68011;DHT22;54794;48.348;7.878;2023-04-06T12:53:28;18.10;37.20
68011;DHT22;54794;48.348;7.878;2023-04-06T12:55:55;18.10;38.00
68011;DHT22;54794;48.348;7.878;2023-04-06T12:58:24;18.10;37.80
68011;DHT22;54794;48.348;7.878;2023-04-06T13:00:55;18.10;37.80
68011;DHT22;54794;48.348;7.878;2023-04-06T13:03:24;18.10;37.90
68011;DHT22;54794;48.348;7.878;2023-04-06T13:05:51;18.10;37.60
68011;DHT22;54794;48.348;7.878;2023-04-06T13:08:19;18.10;37.80
68011;DHT22;54794;48.348;7.878;2023-04-06T13:10:48;18.10;37.50
68011;DHT22;54794;48.348;7.878;2023-04-06T13:13:20;18.10;37.40
68011;DHT22;54794;48.348;7.878;2023-04-06T13:15:55;18.10;37.60
68011;DHT22;54794;48.348;7.878;2023-04-06T13:18:28;18.10;37.20
68011;DHT22;54794;48.348;7.878;2023-04-06T13:20:56;18.10;37.90
68011;DHT22;54794;48.348;7.878;2023-04-06T13:23:23;18.10;37.40
68011;DHT22;54794;48.348;7.878;2023-04-06T13:26:01;18.10;37.20
68011;DHT22;54794;48.348;7.878;2023-04-06T13:28:30;18.10;36.90
68011;DHT22;54794;48.348;7.878;2023-04-06T13:31:02;18.10;36.70
68011;DHT22;54794;48.348;7.878;2023-04-06T13:33:29;18.10;36.60
68011;DHT22;54794;48.348;7.878;2023-04-06T13:35:57;18.00;37.10
68011;DHT22;54794;48.348;7.878;2023-04-06T13:38:25;18.00;36.70
68011;DHT22;54794;48.348;7.878;2023-04-06T13:40:52;18.00;36.80
68011;DHT22;54794;48.348;7.878;2023-04-06T13:43:19;18.00;37.00
68011;DHT22;54794;48.348;7.878;2023-04-06T13:45:51;17.90;37.10
68011;DHT22;54794;48.348;7.878;2023-04-06T13:48:25;18.00;36.50
68011;DHT22;54794;48.348;7.878;2023-04-06T13:50:52;18.00;36.70
68011;DHT22;54794;48.348;7.878;2023-04-06T13:53:19;18.00;36.90
68011;DHT22;54794;48.348;7.878;2023-04-06T13:56:24;18.00;37.00
68011;DHT22;54794;48.348;7.878;2023-04-06T13:59:16;18.00;36.30
68011;DHT22;54794;48.348;7.878;2023-04-06T14:01:47;18.00;36.30
68011;DHT22;54794;48.348;7.878;2023-04-06T14:04:27;18.00;36.80
68011;DHT22;54794;48.348;7.878;2023-04-06T14:06:54;18.00;36.90
68011;DHT22;54794;48.348;7.878;2023-04-06T14:09:21;18.00;36.90
68011;DHT22;54794;48.348;7.878;2023-04-06T14:11:49;18.00;37.50
68011;DHT22;54794;48.348;7.878;2023-04-06T14:14:16;18.00;36.60
68011;DHT22;54794;48.348;7.878;2023-04-06T14:16:44;18.00;36.30
68011;DHT22;54794;48.348;7.878;2023-04-06T14:19:12;17.90;36.10
68011;DHT22;54794;48.348;7.878;2023-04-06T14:21:45;17.90;36.30
68011;DHT22;54794;48.348;7.878;2023-04-06T14:24:12;17.90;36.40
68011;DHT22;54794;48.348;7.878;2023-04-06T14:26:40;17.80;36.00
68011;DHT22;54794;48.348;7.878;2023-04-06T14:29:10;17.80;36.10
68011;DHT22;54794;48.348;7.878;2023-04-06T14:31:37;17.70;36.00
68011;DHT22;54794;48.348;7.878;2023-04-06T14:34:04;17.70;36.30
68011;DHT22;54794;48.348;7.878;2023-04-06T14:36:32;17.60;36.50
68011;DHT22;54794;48.348;7.878;2023-04-06T14:39:05;17.60;36.50
68011;DHT22;54794;48.348;7.878;2023-04-06T14:41:33;17.60;36.40
68011;DHT22;54794;48.348;7.878;2023-04-06T14:44:01;17.60;36.30
68011;DHT22;54794;48.348;7.878;2023-04-06T14:46:28;17.50;36.10
68011;DHT22;54794;48.348;7.878;2023-04-06T14:48:56;17.50;36.40
68011;DHT22;54794;48.348;7.878;2023-04-06T14:51:25;17.50;36.50
68011;DHT22;54794;48.348;7.878;2023-04-06T14:53:53;17.50;36.40
68011;DHT22;54794;48.348;7.878;2023-04-06T14:56:21;17.50;36.40
68011;DHT22;54794;48.348;7.878;2023-04-06T14:58:50;17.50;36.30
68011;DHT22;54794;48.348;7.878;2023-04-06T15:01:18;17.50;36.40
68011;DHT22;54794;48.348;7.878;2023-04-06T15:03:46;17.50;36.30
68011;DHT22;54794;48.348;7.878;2023-04-06T15:06:15;17.50;36.80
68011;DHT22;54794;48.348;7.878;2023-04-06T15:08:43;17.50;36.30
68011;DHT22;54794;48.348;7.878;2023-04-06T15:11:11;17.40;36.20
68011;DHT22;54794;48.348;7.878;2023-04-06T15:13:39;17.50;36.20
68011;DHT22;54794;48.348;7.878;2023-04-06T15:16:31;17.40;36.00
68011;DHT22;54794;48.348;7.878;2023-04-06T15:19:35;17.50;35.60
68011;DHT22;54794;48.348;7.878;2023-04-06T15:22:23;17.50;36.10
68011;DHT22;54794;48.348;7.878;2023-04-06T15:25:54;17.50;35.90
68011;DHT22;54794;48.348;7.878;2023-04-06T15:29:11;17.40;35.80
68011;DHT22;54794;48.348;7.878;2023-04-06T15:36:35;17.30;35.70
68011;DHT22;54794;48.348;7.878;2023-04-06T15:43:37;17.10;35.40
68011;DHT22;54794;48.348;7.878;2023-04-06T15:46:06;17.10;36.20
68011;DHT22;54794;48.348;7.878;2023-04-06T15:48:32;17.00;36.20
68011;DHT22;54794;48.348;7.878;2023-04-06T15:51:00;17.00;36.20
68011;DHT22;54794;48.348;7.878;2023-04-06T15:53:28;16.90;36.30
68011;DHT22;54794;48.348;7.878;2023-04-06T15:56:02;16.90;36.80
68011;DHT22;54794;48.348;7.878;2023-04-06T15:58:32;16.80;36.10
68011;DHT22;54794;48.348;7.878;2023-04-06T16:00:59;16.80;36.30
68011;DHT22;54794;48.348;7.878;2023-04-06T16:03:26;16.70;36.30
68011;DHT22;54794;48.348;7.878;2023-04-06T16:05:54;16.70;36.30
68011;DHT22;54794;48.348;7.878;2023-04-06T16:08:34;16.70;36.40
68011;DHT22;54794;48.348;7.878;2023-04-06T16:11:02;16.60;36.40
68011;DHT22;54794;48.348;7.878;2023-04-06T16:13:29;16.60;36.50
68011;DHT22;54794;48.348;7.878;2023-04-06T16:15:56;16.60;36.40
68011;DHT22;54794;48.348;7.878;2023-04-06T16:18:23;16.50;36.60
68011;DHT22;54794;48.348;7.878;2023-04-06T16:20:51;16.50;36.60
68011;DHT22;54794;48.348;7.878;2023-04-06T16:23:17;16.50;36.70
68011;DHT22;54794;48.348;7.878;2023-04-06T16:25:44;16.40;36.70
68011;DHT22;54794;48.348;7.878;2023-04-06T16:28:11;16.40;36.60
68011;DHT22;54794;48.348;7.878;2023-04-06T16:30:39;16.40;36.60
68011;DHT22;54794;48.348;7.878;2023-04-06T16:33:10;16.30;36.60
68011;DHT22;54794;48.348;7.878;2023-04-06T16:35:46;16.30;36.70
68011;DHT22;54794;48.348;7.878;2023-04-06T16:38:15;16.30;36.60
68011;DHT22;54794;48.348;7.878;2023-04-06T16:41:07;16.20;36.70
68011;DHT22;54794;48.348;7.878;2023-04-06T16:45:01;16.10;36.40